Terminal Aerodrome Forecast
Issued by NWS

Home | Current Version | Previous Version | Text Only | Print | Product List | Glossary On
Versions: 1 2 3 4 5 6 7 8 9 10 11 12 13 14 15 16 17 18 19 20 21
000
FTUS46 KMFR 201100 RRA
TAFRBG
TAF
KRBG 201143Z 2012/2112 VRB03KT 4SM -RA BR SCT025 BKN035 OVC040
      TEMPO 2012/2016 3SM -RA BKN025 OVC035
     FM201700 18004KT P6SM VCSH SCT030 BKN040
     FM202000 20007KT P6SM -SHRA SCT035 BKN050
     FM210300 VRB03KT P6SM BKN040 BKN100=

USA.gov is the U.S. government's official web portal to all federal, state and local government web resources and services.